Star Clipper — 9HA2513 — position and weather

sailwx.info

Track history (hours):
 
Tides and Currents Weather Stations Pressure Air Temp Water Temp Dewpoint Dewpoint Depression Visibility Wind Speed Wind Dir Waves Ship Positions

Star Clipper

Last reported at 2018-May-09 07:33 UTC. Time now 2018-May-24 13:51 UTC.
Position S 05°32' E 106°33'.
Warning: this ship's position is 15 days out of date.

Length 111 m; draft 5.8 m.

Type: Other ship. MMSI: 248786000.

Date/timePositionNaut miles runAvg speedWind from/ knotsBaromVisibWave heightAir tempDewpointWater temp
2018-May-09 07:33S 05°32' E 106°33'0 0.0
2018-May-09 07:27S 05°32' E 106°33'0 0.1
2018-May-09 06:57S 05°32' E 106°33'1 2.3
2018-May-09 06:27S 05°33' E 106°34'4 8.2
2018-May-09 05:57S 05°30' E 106°37'5 9.7
2018-May-09 05:27S 05°26' E 106°38'  
2018-May-05 12:09N 01°14' E 103°58'2 9.1
2018-May-05 11:53N 01°13' E 103°56'4 7.0
2018-May-05 11:17N 01°14' E 103°52'1 2.9
2018-May-05 10:47N 01°16' E 103°52'0 0.0
2018-May-05 10:05N 01°16' E 103°52'0 0.0
2018-May-05 09:41N 01°16' E 103°52'0 0.0
2018-May-05 09:23N 01°16' E 103°52'0 0.0
2018-May-05 08:59N 01°16' E 103°52'0 0.0
2018-May-05 07:47N 01°16' E 103°52'0 0.0
2018-May-05 07:29N 01°16' E 103°52'0 0.0
2018-May-05 06:53N 01°16' E 103°52'0 0.0
2018-May-05 05:41N 01°16' E 103°52'0 0.0
2018-May-05 05:17N 01°16' E 103°52'0 0.0
2018-May-05 04:53N 01°16' E 103°52'0 0.0
2018-May-05 04:29N 01°16' E 103°52'0 0.0
2018-May-05 02:53N 01°16' E 103°52'0 0.0
2018-May-05 02:23N 01°16' E 103°52'0 0.0
2018-May-05 01:59N 01°16' E 103°52'0 0.0
2018-May-05 01:23N 01°16' E 103°52'0 0.0
2018-May-05 00:41N 01°16' E 103°52'0 0.0
2018-May-05 00:29N 01°16' E 103°52'0 0.0
2018-May-04 23:57N 01°16' E 103°52'1 1.1
2018-May-04 23:23N 01°15' E 103°52'2 5.4
2018-May-04 22:57N 01°14' E 103°53'3 5.8
2018-May-04 22:29N 01°12' E 103°52'4 7.3
2018-May-04 21:59N 01°10' E 103°48'4 7.6
2018-May-04 21:29N 01°08' E 103°45'4 7.9
2018-May-04 20:57N 01°05' E 103°42'8 7.8
2018-May-04 19:59N 01°06' E 103°35'4 8.9
2018-May-04 19:29N 01°08' E 103°31'  
Track history (hours):
 
Tides and Currents Weather Stations Pressure Air Temp Water Temp Dewpoint Dewpoint Depression Visibility Wind Speed Wind Dir Waves Ship Positions

Star Clipper

Last reported at 2018-May-09 07:33 UTC. Time now 2018-May-24 13:51 UTC.
Position S 05°32' E 106°33'.
Warning: this ship's position is 15 days out of date.

Length 111 m; draft 5.8 m.

Type: Other ship. MMSI: 248786000.

Date/timePositionNaut miles runAvg speedWind from/ knotsBaromVisibWave heightAir tempDewpointWater temp
2018-May-09 07:33S 05°32' E 106°33'0 0.0
2018-May-09 07:27S 05°32' E 106°33'0 0.1
2018-May-09 06:57S 05°32' E 106°33'1 2.3
2018-May-09 06:27S 05°33' E 106°34'4 8.2
2018-May-09 05:57S 05°30' E 106°37'5 9.7
2018-May-09 05:27S 05°26' E 106°38'  
2018-May-05 12:09N 01°14' E 103°58'2 9.1
2018-May-05 11:53N 01°13' E 103°56'4 7.0
2018-May-05 11:17N 01°14' E 103°52'1 2.9
2018-May-05 10:47N 01°16' E 103°52'0 0.0
2018-May-05 10:05N 01°16' E 103°52'0 0.0
2018-May-05 09:41N 01°16' E 103°52'0 0.0
2018-May-05 09:23N 01°16' E 103°52'0 0.0
2018-May-05 08:59N 01°16' E 103°52'0 0.0
2018-May-05 07:47N 01°16' E 103°52'0 0.0
2018-May-05 07:29N 01°16' E 103°52'0 0.0
2018-May-05 06:53N 01°16' E 103°52'0 0.0
2018-May-05 05:41N 01°16' E 103°52'0 0.0
2018-May-05 05:17N 01°16' E 103°52'0 0.0
2018-May-05 04:53N 01°16' E 103°52'0 0.0
2018-May-05 04:29N 01°16' E 103°52'0 0.0
2018-May-05 02:53N 01°16' E 103°52'0 0.0
2018-May-05 02:23N 01°16' E 103°52'0 0.0
2018-May-05 01:59N 01°16' E 103°52'0 0.0
2018-May-05 01:23N 01°16' E 103°52'0 0.0
2018-May-05 00:41N 01°16' E 103°52'0 0.0
2018-May-05 00:29N 01°16' E 103°52'0 0.0
2018-May-04 23:57N 01°16' E 103°52'1 1.1
2018-May-04 23:23N 01°15' E 103°52'2 5.4
2018-May-04 22:57N 01°14' E 103°53'3 5.8
2018-May-04 22:29N 01°12' E 103°52'4 7.3
2018-May-04 21:59N 01°10' E 103°48'4 7.6
2018-May-04 21:29N 01°08' E 103°45'4 7.9
2018-May-04 20:57N 01°05' E 103°42'8 7.8
2018-May-04 19:59N 01°06' E 103°35'4 8.9
2018-May-04 19:29N 01°08' E 103°31'  

Dump ship's entire track history